createdAt,value
2018-10-03T00:00:31.890Z,10.20
2018-10-03T00:05:36.368Z,10.20
2018-10-03T00:15:44.268Z,10.10
2018-10-03T00:20:48.311Z,10.10
2018-10-03T00:25:52.321Z,10.10
2018-10-03T00:36:00.012Z,10.10
2018-10-03T00:41:04.313Z,10.10
2018-10-03T00:51:12.392Z,10.20
2018-10-03T00:56:16.482Z,10.20
2018-10-03T01:01:21.263Z,10.20
2018-10-03T01:06:25.247Z,10.20
2018-10-03T01:11:29.283Z,10.20
2018-10-03T01:16:40.087Z,10.20
2018-10-03T01:21:44.064Z,10.20
2018-10-03T01:26:48.572Z,10.20
2018-10-03T01:31:52.953Z,10.20
2018-10-03T01:36:57.253Z,10.20
2018-10-03T01:42:01.374Z,10.30
2018-10-03T01:47:05.816Z,10.30
2018-10-03T01:52:10.119Z,10.30
2018-10-03T01:57:14.124Z,10.30
2018-10-03T02:02:18.183Z,10.30
2018-10-03T02:17:31.225Z,10.30
2018-10-03T02:22:35.212Z,10.40
2018-10-03T02:27:40.617Z,10.50
2018-10-03T02:42:54.365Z,10.40
2018-10-03T02:47:59.003Z,10.40
2018-10-03T02:53:03.260Z,10.40
2018-10-03T02:58:07.736Z,10.40
2018-10-03T03:03:11.747Z,10.40
2018-10-03T03:08:15.743Z,10.40
2018-10-03T03:13:19.754Z,10.40
2018-10-03T03:23:28.120Z,10.30
2018-10-03T03:28:32.482Z,10.30
2018-10-03T03:33:36.824Z,10.30
2018-10-03T03:43:45.545Z,10.30
2018-10-03T03:48:49.924Z,10.30
2018-10-03T03:53:54.545Z,10.30
2018-10-03T04:14:11.101Z,10.30
2018-10-03T04:19:15.411Z,10.30
2018-10-03T04:24:19.809Z,10.30
2018-10-03T04:29:23.837Z,10.30
2018-10-03T04:34:27.812Z,10.30
2018-10-03T04:44:35.753Z,10.30
2018-10-03T04:54:43.804Z,10.40
2018-10-03T05:04:51.572Z,10.30
2018-10-03T05:15:00.053Z,10.30
2018-10-03T05:20:05.001Z,10.40
2018-10-03T05:30:13.573Z,10.40
2018-10-03T05:35:18.311Z,10.40
2018-10-03T05:40:22.732Z,10.40
2018-10-03T05:45:27.223Z,10.40
2018-10-03T05:50:31.500Z,10.40
2018-10-03T06:05:44.144Z,10.40
2018-10-03T06:10:48.149Z,10.40
2018-10-03T06:15:52.272Z,10.40
2018-10-03T06:31:03.641Z,10.70
2018-10-03T06:46:16.546Z,10.80
2018-10-03T06:51:21.281Z,10.90
2018-10-03T06:56:26.097Z,11.00
2018-10-03T07:01:30.090Z,11.10
2018-10-03T07:11:53.434Z,11.20
2018-10-03T07:16:57.452Z,11.30
2018-10-03T07:27:05.510Z,11.40
2018-10-03T07:32:09.496Z,11.40
2018-10-03T07:37:13.930Z,11.50
2018-10-03T07:42:18.939Z,11.50
2018-10-03T07:52:27.753Z,11.70
2018-10-03T07:57:32.111Z,11.60
2018-10-03T08:02:36.554Z,11.60
2018-10-03T08:07:42.715Z,11.60
2018-10-03T08:17:51.343Z,11.90
2018-10-03T08:22:55.300Z,12.00
2018-10-03T08:27:59.688Z,12.10
2018-10-03T08:33:03.684Z,12.20
2018-10-03T08:38:08.173Z,12.20
2018-10-03T08:43:12.817Z,12.30
2018-10-03T08:58:24.598Z,12.60
2018-10-03T09:03:29.193Z,12.70
2018-10-03T09:08:33.181Z,12.70
2018-10-03T09:18:41.569Z,12.90
2018-10-03T09:23:46.709Z,13.10
2018-10-03T09:28:52.124Z,13.20
2018-10-03T09:33:56.984Z,13.30
2018-10-03T09:39:01.334Z,13.60
2018-10-03T09:44:05.985Z,13.60
2018-10-03T09:49:11.176Z,13.70
2018-10-03T09:54:15.222Z,13.80
2018-10-03T09:59:20.009Z,14.30
2018-10-03T10:04:24.361Z,14.30
2018-10-03T10:09:29.020Z,14.60
2018-10-03T10:14:34.140Z,14.90
2018-10-03T10:19:38.531Z,15.50
2018-10-03T10:24:43.106Z,15.70
2018-10-03T10:29:47.076Z,15.00
2018-10-03T10:34:51.068Z,15.00
2018-10-03T11:05:17.157Z,14.70
2018-10-03T11:10:23.174Z,15.00
2018-10-03T11:15:27.281Z,15.00
2018-10-03T11:25:37.832Z,15.00
2018-10-03T11:35:48.781Z,15.70
2018-10-03T11:40:53.332Z,15.80
2018-10-03T11:45:57.344Z,16.30
2018-10-03T11:51:03.673Z,15.80
2018-10-03T12:01:12.662Z,15.10
2018-10-03T12:06:16.733Z,15.00
2018-10-03T12:36:47.300Z,15.00
2018-10-03T12:46:57.511Z,15.20
2018-10-03T12:52:02.499Z,15.60
2018-10-03T12:57:06.513Z,16.60
2018-10-03T13:12:19.568Z,17.10
2018-10-03T13:17:24.094Z,17.10
2018-10-03T13:22:28.436Z,16.90
2018-10-03T13:37:40.204Z,16.10
2018-10-03T13:42:44.413Z,16.00
2018-10-03T13:47:49.014Z,16.00
2018-10-03T13:52:53.098Z,16.40
2018-10-03T13:57:57.195Z,17.00
2018-10-03T14:03:01.885Z,17.00
2018-10-03T14:08:07.175Z,17.10
2018-10-03T14:13:11.834Z,17.10
2018-10-03T14:18:15.814Z,18.00
2018-10-03T14:23:20.568Z,17.70
2018-10-03T14:28:25.596Z,17.40
2018-10-03T14:33:29.877Z,19.00
2018-10-03T14:38:35.398Z,19.00
2018-10-03T14:43:39.681Z,19.10
2018-10-03T14:48:44.093Z,18.70
2018-10-03T14:53:49.182Z,18.20
2018-10-03T14:58:53.652Z,18.10
2018-10-03T15:03:58.873Z,17.80
2018-10-03T15:09:02.972Z,16.00
2018-10-03T15:14:09.265Z,16.00
2018-10-03T15:29:20.862Z,15.80
2018-10-03T15:34:25.347Z,15.90
2018-10-03T15:39:30.142Z,15.80
2018-10-03T15:44:34.962Z,15.30
2018-10-03T15:59:47.700Z,14.90
2018-10-03T16:15:00.268Z,14.50
2018-10-03T16:20:04.336Z,14.40
2018-10-03T16:30:12.282Z,14.10
2018-10-03T16:35:18.060Z,14.10
2018-10-03T16:40:22.337Z,13.90
2018-10-03T16:50:30.029Z,13.70
2018-10-03T16:55:35.262Z,13.60
2018-10-03T17:00:39.425Z,13.50
2018-10-03T17:05:43.405Z,13.50
2018-10-03T17:10:47.448Z,13.40
2018-10-03T17:20:56.174Z,13.10
2018-10-03T17:26:00.286Z,13.00
2018-10-03T17:31:04.257Z,12.90
2018-10-03T17:41:12.401Z,12.60
2018-10-03T17:46:16.536Z,12.60
2018-10-03T18:06:33.994Z,12.40
2018-10-03T18:11:38.440Z,12.40
2018-10-03T19:02:20.174Z,11.40
2018-10-03T19:07:24.579Z,11.50
2018-10-03T19:27:40.721Z,11.80
2018-10-03T19:32:45.445Z,11.70
2018-10-03T19:58:06.756Z,11.10
2018-10-03T20:23:28.906Z,11.00
2018-10-03T20:33:37.656Z,11.10
2018-10-03T20:58:58.513Z,10.60
2018-10-03T21:04:04.338Z,10.50
2018-10-03T21:14:15.523Z,10.40
2018-10-03T21:24:23.335Z,10.10
2018-10-03T21:34:31.241Z,9.90
2018-10-03T21:49:53.453Z,9.80
2018-10-03T21:54:59.671Z,9.80
2018-10-03T22:00:03.588Z,9.70
2018-10-03T22:05:09.378Z,9.70
2018-10-03T22:10:13.393Z,9.70
2018-10-03T22:15:17.288Z,9.80
2018-10-03T22:25:25.966Z,9.80
2018-10-03T22:30:29.964Z,9.90
2018-10-03T22:35:34.541Z,9.80
2018-10-03T22:40:39.338Z,9.80
2018-10-03T22:45:44.986Z,9.90
2018-10-03T22:50:49.659Z,9.90
2018-10-03T22:55:56.171Z,9.80
2018-10-03T23:01:00.762Z,9.80
2018-10-03T23:06:06.951Z,9.70
2018-10-03T23:11:12.204Z,9.60
2018-10-03T23:16:17.641Z,9.60
2018-10-03T23:21:22.272Z,9.60
2018-10-03T23:26:27.601Z,9.70
2018-10-03T23:31:33.190Z,10.60
2018-10-03T23:36:38.129Z,9.70
2018-10-03T23:41:44.194Z,9.60
2018-10-03T23:46:49.145Z,9.40
2018-10-03T23:51:55.168Z,9.30
2018-10-03T23:56:59.877Z,9.10
